sensor_id;sensor_type;location;lat;lon;timestamp;pressure;altitude;pressure_sealevel;temperature;humidity
61345;BME280;47216;42.656;23.232;2022-10-23T00:00:15;94418.59;;;10.86;72.83
61345;BME280;47216;42.656;23.232;2022-10-23T00:02:42;94418.72;;;10.62;73.92
61345;BME280;47216;42.656;23.232;2022-10-23T00:05:10;94413.75;;;10.61;74.25
61345;BME280;47216;42.656;23.232;2022-10-23T00:07:37;94416.63;;;10.47;74.27
61345;BME280;47216;42.656;23.232;2022-10-23T00:10:05;94399.06;;;10.43;74.66
61345;BME280;47216;42.656;23.232;2022-10-23T00:12:32;94402.25;;;10.45;74.83
61345;BME280;47216;42.656;23.232;2022-10-23T00:14:58;94396.41;;;10.55;74.73
61345;BME280;47216;42.656;23.232;2022-10-23T00:17:25;94407.84;;;10.65;74.28
61345;BME280;47216;42.656;23.232;2022-10-23T00:19:52;94398.84;;;10.73;74.15
61345;BME280;47216;42.656;23.232;2022-10-23T00:22:20;94387.91;;;10.76;74.39
61345;BME280;47216;42.656;23.232;2022-10-23T00:24:47;94404.22;;;10.83;73.69
61345;BME280;47216;42.656;23.232;2022-10-23T00:27:14;94401.84;;;10.82;73.58
61345;BME280;47216;42.656;23.232;2022-10-23T00:29:40;94392.13;;;10.77;73.85
61345;BME280;47216;42.656;23.232;2022-10-23T00:32:10;94391.56;;;10.75;73.63
61345;BME280;47216;42.656;23.232;2022-10-23T00:34:37;94391.19;;;10.55;74.20
61345;BME280;47216;42.656;23.232;2022-10-23T00:37:04;94398.28;;;10.42;74.91
61345;BME280;47216;42.656;23.232;2022-10-23T00:39:32;94397.53;;;10.59;74.61
61345;BME280;47216;42.656;23.232;2022-10-23T00:41:59;94410.19;;;10.67;74.38
61345;BME280;47216;42.656;23.232;2022-10-23T00:45:09;94412.44;;;10.75;74.22
61345;BME280;47216;42.656;23.232;2022-10-23T00:47:37;94415.13;;;10.80;73.77
61345;BME280;47216;42.656;23.232;2022-10-23T00:50:05;94410.19;;;10.67;73.76
61345;BME280;47216;42.656;23.232;2022-10-23T00:52:33;94402.63;;;10.54;74.61
61345;BME280;47216;42.656;23.232;2022-10-23T00:55:04;94391.03;;;10.44;74.67
61345;BME280;47216;42.656;23.232;2022-10-23T00:57:31;94389.81;;;10.35;74.56
61345;BME280;47216;42.656;23.232;2022-10-23T00:59:58;94388.44;;;10.61;72.68
61345;BME280;47216;42.656;23.232;2022-10-23T01:02:25;94397.47;;;11.16;67.92
61345;BME280;47216;42.656;23.232;2022-10-23T01:04:52;94395.19;;;11.92;65.18
61345;BME280;47216;42.656;23.232;2022-10-23T01:07:25;94391.72;;;12.80;60.38
61345;BME280;47216;42.656;23.232;2022-10-23T01:09:58;94385.28;;;13.52;59.44
61345;BME280;47216;42.656;23.232;2022-10-23T01:12:34;94380.94;;;13.73;59.37
61345;BME280;47216;42.656;23.232;2022-10-23T01:15:08;94400.44;;;13.93;58.12
61345;BME280;47216;42.656;23.232;2022-10-23T01:17:41;94405.47;;;13.99;57.64
61345;BME280;47216;42.656;23.232;2022-10-23T01:20:23;94394.78;;;14.16;56.19
61345;BME280;47216;42.656;23.232;2022-10-23T01:23:20;94389.09;;;14.35;56.92
61345;BME280;47216;42.656;23.232;2022-10-23T01:26:00;94391.25;;;14.48;55.09
61345;BME280;47216;42.656;23.232;2022-10-23T01:28:31;94399.97;;;14.64;56.22
61345;BME280;47216;42.656;23.232;2022-10-23T01:31:01;94398.44;;;14.73;55.77
61345;BME280;47216;42.656;23.232;2022-10-23T01:33:32;94401.31;;;14.71;54.25
61345;BME280;47216;42.656;23.232;2022-10-23T01:36:04;94411.31;;;14.85;55.33
61345;BME280;47216;42.656;23.232;2022-10-23T01:38:36;94426.03;;;14.91;54.75
61345;BME280;47216;42.656;23.232;2022-10-23T01:41:10;94434.41;;;14.73;56.75
61345;BME280;47216;42.656;23.232;2022-10-23T01:43:43;94460.53;;;14.47;58.76
61345;BME280;47216;42.656;23.232;2022-10-23T01:46:13;94465.66;;;14.26;58.96
61345;BME280;47216;42.656;23.232;2022-10-23T01:48:45;94472.34;;;14.02;60.58
61345;BME280;47216;42.656;23.232;2022-10-23T01:51:14;94452.91;;;13.98;60.89
61345;BME280;47216;42.656;23.232;2022-10-23T01:53:43;94444.66;;;13.79;61.23
61345;BME280;47216;42.656;23.232;2022-10-23T01:56:13;94444.47;;;13.53;61.63
61345;BME280;47216;42.656;23.232;2022-10-23T01:58:45;94453.50;;;13.35;62.55
61345;BME280;47216;42.656;23.232;2022-10-23T02:01:13;94439.81;;;13.28;62.48
61345;BME280;47216;42.656;23.232;2022-10-23T02:03:42;94430.25;;;13.17;63.50
61345;BME280;47216;42.656;23.232;2022-10-23T02:06:10;94420.69;;;13.00;63.90
61345;BME280;47216;42.656;23.232;2022-10-23T02:08:37;94420.88;;;12.94;64.50
61345;BME280;47216;42.656;23.232;2022-10-23T02:11:07;94417.34;;;12.78;64.07
61345;BME280;47216;42.656;23.232;2022-10-23T02:13:38;94415.44;;;12.46;65.56
61345;BME280;47216;42.656;23.232;2022-10-23T02:16:18;94412.88;;;12.51;64.75
61345;BME280;47216;42.656;23.232;2022-10-23T02:18:54;94421.50;;;12.74;62.69
61345;BME280;47216;42.656;23.232;2022-10-23T02:21:27;94438.53;;;13.03;63.24
61345;BME280;47216;42.656;23.232;2022-10-23T02:24:00;94462.19;;;12.87;64.94
61345;BME280;47216;42.656;23.232;2022-10-23T02:26:33;94481.56;;;12.86;64.92
61345;BME280;47216;42.656;23.232;2022-10-23T02:29:06;94492.69;;;12.76;65.24
61345;BME280;47216;42.656;23.232;2022-10-23T02:31:36;94495.75;;;12.68;65.77
61345;BME280;47216;42.656;23.232;2022-10-23T02:34:03;94496.06;;;12.71;65.28
61345;BME280;47216;42.656;23.232;2022-10-23T02:36:29;94490.00;;;12.71;65.70
61345;BME280;47216;42.656;23.232;2022-10-23T02:38:56;94498.78;;;12.59;66.14
61345;BME280;47216;42.656;23.232;2022-10-23T02:41:34;94496.75;;;12.45;66.39
61345;BME280;47216;42.656;23.232;2022-10-23T02:44:12;94492.00;;;12.19;67.40
61345;BME280;47216;42.656;23.232;2022-10-23T02:46:50;94481.50;;;11.97;68.21
61345;BME280;47216;42.656;23.232;2022-10-23T02:49:24;94491.91;;;11.92;68.27
61345;BME280;47216;42.656;23.232;2022-10-23T02:51:58;94480.28;;;11.71;68.60
61345;BME280;47216;42.656;23.232;2022-10-23T02:54:41;94483.94;;;11.70;68.87
61345;BME280;47216;42.656;23.232;2022-10-23T02:57:15;94490.34;;;11.80;68.85
61345;BME280;47216;42.656;23.232;2022-10-23T02:59:50;94491.34;;;11.90;68.78
61345;BME280;47216;42.656;23.232;2022-10-23T03:02:22;94502.72;;;12.01;68.91
61345;BME280;47216;42.656;23.232;2022-10-23T03:04:51;94509.78;;;12.01;68.52
61345;BME280;47216;42.656;23.232;2022-10-23T03:07:20;94511.75;;;11.93;68.72
61345;BME280;47216;42.656;23.232;2022-10-23T03:09:47;94509.84;;;11.89;69.04
61345;BME280;47216;42.656;23.232;2022-10-23T03:12:13;94514.03;;;11.73;69.68
61345;BME280;47216;42.656;23.232;2022-10-23T03:14:40;94513.06;;;11.62;70.06
61345;BME280;47216;42.656;23.232;2022-10-23T03:17:08;94511.22;;;11.46;70.58
61345;BME280;47216;42.656;23.232;2022-10-23T03:19:36;94515.66;;;11.45;70.71
61345;BME280;47216;42.656;23.232;2022-10-23T03:22:03;94515.81;;;11.39;70.84
61345;BME280;47216;42.656;23.232;2022-10-23T03:24:30;94523.66;;;11.39;71.04
61345;BME280;47216;42.656;23.232;2022-10-23T03:26:57;94520.53;;;11.25;71.47
61345;BME280;47216;42.656;23.232;2022-10-23T03:29:23;94527.50;;;11.19;71.49
61345;BME280;47216;42.656;23.232;2022-10-23T03:31:50;94528.03;;;10.92;72.17
61345;BME280;47216;42.656;23.232;2022-10-23T03:34:17;94528.88;;;10.81;72.34
61345;BME280;47216;42.656;23.232;2022-10-23T03:36:45;94525.81;;;10.84;72.25
61345;BME280;47216;42.656;23.232;2022-10-23T03:39:12;94522.63;;;10.82;72.13
61345;BME280;47216;42.656;23.232;2022-10-23T03:41:39;94526.59;;;10.85;71.93
61345;BME280;47216;42.656;23.232;2022-10-23T03:44:06;94527.47;;;10.90;71.88
61345;BME280;47216;42.656;23.232;2022-10-23T03:46:32;94532.25;;;10.93;71.74
61345;BME280;47216;42.656;23.232;2022-10-23T03:48:59;94525.69;;;10.91;71.60
61345;BME280;47216;42.656;23.232;2022-10-23T03:51:26;94532.25;;;10.93;71.34
61345;BME280;47216;42.656;23.232;2022-10-23T03:53:54;94551.66;;;10.98;70.79
61345;BME280;47216;42.656;23.232;2022-10-23T03:56:21;94548.81;;;10.87;71.15
61345;BME280;47216;42.656;23.232;2022-10-23T03:58:48;94549.84;;;10.86;71.20
61345;BME280;47216;42.656;23.232;2022-10-23T04:01:15;94563.59;;;10.82;71.01
61345;BME280;47216;42.656;23.232;2022-10-23T04:03:42;94564.59;;;10.81;71.28
61345;BME280;47216;42.656;23.232;2022-10-23T04:06:09;94570.72;;;10.86;70.57
61345;BME280;47216;42.656;23.232;2022-10-23T04:08:35;94569.94;;;10.74;70.82
61345;BME280;47216;42.656;23.232;2022-10-23T04:11:04;94572.44;;;10.81;70.92
61345;BME280;47216;42.656;23.232;2022-10-23T04:13:31;94573.38;;;10.75;70.92
61345;BME280;47216;42.656;23.232;2022-10-23T04:15:57;94581.88;;;10.70;70.11
61345;BME280;47216;42.656;23.232;2022-10-23T04:18:24;94572.34;;;10.64;69.77
61345;BME280;47216;42.656;23.232;2022-10-23T04:20:51;94568.16;;;10.51;70.12
61345;BME280;47216;42.656;23.232;2022-10-23T04:23:18;94578.59;;;10.51;69.61
61345;BME280;47216;42.656;23.232;2022-10-23T04:25:45;94579.72;;;10.55;69.33
61345;BME280;47216;42.656;23.232;2022-10-23T04:28:14;94577.91;;;10.56;69.44
61345;BME280;47216;42.656;23.232;2022-10-23T04:30:41;94581.19;;;10.63;68.88
61345;BME280;47216;42.656;23.232;2022-10-23T04:33:07;94582.00;;;10.63;68.08
61345;BME280;47216;42.656;23.232;2022-10-23T04:35:34;94575.97;;;10.63;68.08
61345;BME280;47216;42.656;23.232;2022-10-23T04:38:01;94575.88;;;10.58;68.42
61345;BME280;47216;42.656;23.232;2022-10-23T04:40:28;94572.94;;;10.54;68.70
61345;BME280;47216;42.656;23.232;2022-10-23T04:42:54;94578.28;;;10.47;68.13
61345;BME280;47216;42.656;23.232;2022-10-23T04:45:23;94575.31;;;10.56;67.92
61345;BME280;47216;42.656;23.232;2022-10-23T04:47:49;94569.31;;;10.55;67.90
61345;BME280;47216;42.656;23.232;2022-10-23T04:50:18;94563.06;;;10.56;67.71
61345;BME280;47216;42.656;23.232;2022-10-23T04:52:45;94578.47;;;10.58;67.30
61345;BME280;47216;42.656;23.232;2022-10-23T04:55:12;94582.22;;;10.62;67.88
61345;BME280;47216;42.656;23.232;2022-10-23T04:57:38;94576.78;;;10.63;67.65
61345;BME280;47216;42.656;23.232;2022-10-23T05:00:08;94579.97;;;10.65;67.59
61345;BME280;47216;42.656;23.232;2022-10-23T05:02:36;94592.75;;;10.67;66.98
61345;BME280;47216;42.656;23.232;2022-10-23T05:05:04;94591.06;;;10.72;67.07
61345;BME280;47216;42.656;23.232;2022-10-23T05:07:32;94591.84;;;10.73;66.81
61345;BME280;47216;42.656;23.232;2022-10-23T05:09:59;94586.94;;;10.77;66.76
61345;BME280;47216;42.656;23.232;2022-10-23T05:12:26;94595.47;;;10.72;66.59
61345;BME280;47216;42.656;23.232;2022-10-23T05:14:53;94594.34;;;10.80;66.26
61345;BME280;47216;42.656;23.232;2022-10-23T05:17:22;94598.88;;;10.84;66.51
61345;BME280;47216;42.656;23.232;2022-10-23T05:19:56;94598.88;;;10.84;66.29
61345;BME280;47216;42.656;23.232;2022-10-23T05:22:29;94597.94;;;10.90;66.19
61345;BME280;47216;42.656;23.232;2022-10-23T05:24:58;94595.16;;;11.09;65.17
61345;BME280;47216;42.656;23.232;2022-10-23T05:27:26;94606.00;;;11.29;64.83
61345;BME280;47216;42.656;23.232;2022-10-23T05:29:53;94607.78;;;11.41;64.46
61345;BME280;47216;42.656;23.232;2022-10-23T05:32:20;94604.22;;;11.47;64.71
61345;BME280;47216;42.656;23.232;2022-10-23T05:34:48;94600.84;;;11.46;64.87
61345;BME280;47216;42.656;23.232;2022-10-23T05:37:16;94606.72;;;11.53;64.79
61345;BME280;47216;42.656;23.232;2022-10-23T05:39:43;94606.41;;;11.67;64.95
61345;BME280;47216;42.656;23.232;2022-10-23T05:42:10;94618.94;;;11.82;64.62
61345;BME280;47216;42.656;23.232;2022-10-23T05:44:37;94619.78;;;11.99;64.94
61345;BME280;47216;42.656;23.232;2022-10-23T05:47:03;94623.28;;;12.05;64.24
61345;BME280;47216;42.656;23.232;2022-10-23T05:49:30;94624.69;;;12.12;65.42
61345;BME280;47216;42.656;23.232;2022-10-23T05:51:57;94634.38;;;12.29;66.16
61345;BME280;47216;42.656;23.232;2022-10-23T05:54:25;94634.22;;;12.52;67.24
61345;BME280;47216;42.656;23.232;2022-10-23T05:56:52;94646.63;;;12.79;66.60
61345;BME280;47216;42.656;23.232;2022-10-23T05:59:19;94640.47;;;12.90;66.07
61345;BME280;47216;42.656;23.232;2022-10-23T06:01:46;94652.13;;;12.99;66.81
61345;BME280;47216;42.656;23.232;2022-10-23T06:04:12;94656.94;;;13.08;66.72
61345;BME280;47216;42.656;23.232;2022-10-23T06:06:39;94652.06;;;13.16;67.72
61345;BME280;47216;42.656;23.232;2022-10-23T06:09:06;94666.41;;;13.31;68.57
61345;BME280;47216;42.656;23.232;2022-10-23T06:11:34;94655.75;;;13.37;69.00
61345;BME280;47216;42.656;23.232;2022-10-23T06:14:01;94664.72;;;13.41;68.64
61345;BME280;47216;42.656;23.232;2022-10-23T06:16:28;94666.66;;;13.51;68.60
61345;BME280;47216;42.656;23.232;2022-10-23T06:18:55;94675.84;;;13.54;69.56
61345;BME280;47216;42.656;23.232;2022-10-23T06:21:23;94662.50;;;13.55;70.20
61345;BME280;47216;42.656;23.232;2022-10-23T06:23:50;94658.97;;;13.66;70.20
61345;BME280;47216;42.656;23.232;2022-10-23T06:26:18;94658.28;;;13.76;70.28
61345;BME280;47216;42.656;23.232;2022-10-23T06:28:46;94656.34;;;13.94;70.70
61345;BME280;47216;42.656;23.232;2022-10-23T06:31:14;94653.31;;;14.07;69.62
61345;BME280;47216;42.656;23.232;2022-10-23T06:33:43;94649.81;;;14.23;69.29
61345;BME280;47216;42.656;23.232;2022-10-23T06:36:10;94650.13;;;14.32;68.25
61345;BME280;47216;42.656;23.232;2022-10-23T06:38:37;94659.97;;;14.47;68.97
61345;BME280;47216;42.656;23.232;2022-10-23T06:41:05;94663.19;;;14.54;66.88
61345;BME280;47216;42.656;23.232;2022-10-23T06:43:33;94668.00;;;14.67;65.91
61345;BME280;47216;42.656;23.232;2022-10-23T06:46:02;94674.13;;;14.83;65.44
61345;BME280;47216;42.656;23.232;2022-10-23T06:48:29;94671.28;;;14.90;65.84
61345;BME280;47216;42.656;23.232;2022-10-23T06:50:57;94671.34;;;15.00;64.45
61345;BME280;47216;42.656;23.232;2022-10-23T06:53:24;94662.97;;;15.08;64.49
61345;BME280;47216;42.656;23.232;2022-10-23T06:55:57;94676.75;;;15.26;63.99
61345;BME280;47216;42.656;23.232;2022-10-23T06:58:24;94679.94;;;15.33;63.47
61345;BME280;47216;42.656;23.232;2022-10-23T07:00:51;94687.81;;;15.38;62.87
61345;BME280;47216;42.656;23.232;2022-10-23T07:03:20;94671.81;;;15.45;63.27
61345;BME280;47216;42.656;23.232;2022-10-23T07:05:47;94666.34;;;15.51;62.25
61345;BME280;47216;42.656;23.232;2022-10-23T07:08:13;94682.66;;;15.59;62.36
61345;BME280;47216;42.656;23.232;2022-10-23T07:10:40;94683.25;;;15.71;61.84
61345;BME280;47216;42.656;23.232;2022-10-23T07:13:07;94681.44;;;15.71;61.67
61345;BME280;47216;42.656;23.232;2022-10-23T07:15:34;94692.75;;;15.82;61.69
61345;BME280;47216;42.656;23.232;2022-10-23T07:18:01;94686.47;;;15.99;60.84
61345;BME280;47216;42.656;23.232;2022-10-23T07:20:29;94694.94;;;16.11;60.53
61345;BME280;47216;42.656;23.232;2022-10-23T07:22:57;94682.59;;;16.32;60.39
61345;BME280;47216;42.656;23.232;2022-10-23T07:25:24;94691.25;;;16.43;59.59
61345;BME280;47216;42.656;23.232;2022-10-23T07:27:52;94682.06;;;16.55;59.17
61345;BME280;47216;42.656;23.232;2022-10-23T07:30:20;94687.59;;;16.69;58.53
61345;BME280;47216;42.656;23.232;2022-10-23T07:32:47;94684.72;;;16.81;59.02
61345;BME280;47216;42.656;23.232;2022-10-23T07:35:14;94680.47;;;16.90;57.86
61345;BME280;47216;42.656;23.232;2022-10-23T07:37:44;94675.47;;;16.94;58.17
61345;BME280;47216;42.656;23.232;2022-10-23T07:40:11;94683.38;;;16.99;57.54
61345;BME280;47216;42.656;23.232;2022-10-23T07:42:38;94677.00;;;17.05;57.59
61345;BME280;47216;42.656;23.232;2022-10-23T07:45:07;94673.56;;;17.10;57.02
61345;BME280;47216;42.656;23.232;2022-10-23T07:47:34;94667.00;;;17.12;57.07
61345;BME280;47216;42.656;23.232;2022-10-23T07:50:01;94673.31;;;17.21;56.81
61345;BME280;47216;42.656;23.232;2022-10-23T07:52:27;94674.88;;;17.22;56.99
61345;BME280;47216;42.656;23.232;2022-10-23T07:54:56;94668.00;;;17.32;56.71
61345;BME280;47216;42.656;23.232;2022-10-23T07:57:22;94678.00;;;17.30;55.74
61345;BME280;47216;42.656;23.232;2022-10-23T07:59:49;94673.81;;;17.29;56.33
61345;BME280;47216;42.656;23.232;2022-10-23T08:02:16;94669.31;;;17.34;55.91
61345;BME280;47216;42.656;23.232;2022-10-23T08:04:43;94664.81;;;17.35;56.25
61345;BME280;47216;42.656;23.232;2022-10-23T08:07:09;94683.75;;;17.42;55.92
61345;BME280;47216;42.656;23.232;2022-10-23T08:09:36;94689.03;;;17.52;55.89
61345;BME280;47216;42.656;23.232;2022-10-23T08:12:05;94681.88;;;17.53;56.06
61345;BME280;47216;42.656;23.232;2022-10-23T08:14:32;94683.47;;;17.54;55.53
61345;BME280;47216;42.656;23.232;2022-10-23T08:16:58;94682.16;;;17.56;56.23
61345;BME280;47216;42.656;23.232;2022-10-23T08:19:25;94691.38;;;17.59;56.17
61345;BME280;47216;42.656;23.232;2022-10-23T08:21:52;94684.22;;;17.64;56.36
61345;BME280;47216;42.656;23.232;2022-10-23T08:24:21;94679.47;;;17.61;55.86
61345;BME280;47216;42.656;23.232;2022-10-23T08:26:48;94682.31;;;17.75;55.93
61345;BME280;47216;42.656;23.232;2022-10-23T08:29:17;94688.13;;;17.82;55.65
61345;BME280;47216;42.656;23.232;2022-10-23T08:31:44;94687.84;;;17.74;55.54
61345;BME280;47216;42.656;23.232;2022-10-23T08:34:11;94686.78;;;17.80;55.74
61345;BME280;47216;42.656;23.232;2022-10-23T08:36:38;94686.44;;;17.97;55.63
61345;BME280;47216;42.656;23.232;2022-10-23T08:39:05;94695.16;;;17.97;55.94
61345;BME280;47216;42.656;23.232;2022-10-23T08:41:34;94685.66;;;17.96;55.78
61345;BME280;47216;42.656;23.232;2022-10-23T08:44:06;94683.59;;;17.93;55.27
61345;BME280;47216;42.656;23.232;2022-10-23T08:46:41;94686.56;;;17.81;55.73
61345;BME280;47216;42.656;23.232;2022-10-23T08:49:18;94687.81;;;17.89;55.27
61345;BME280;47216;42.656;23.232;2022-10-23T08:51:49;94681.22;;;17.92;55.81
61345;BME280;47216;42.656;23.232;2022-10-23T08:54:20;94679.06;;;17.99;55.59
61345;BME280;47216;42.656;23.232;2022-10-23T08:56:53;94691.94;;;18.05;55.52
61345;BME280;47216;42.656;23.232;2022-10-23T08:59:26;94686.38;;;18.12;55.11
61345;BME280;47216;42.656;23.232;2022-10-23T09:01:59;94678.69;;;18.16;55.16
61345;BME280;47216;42.656;23.232;2022-10-23T09:04:26;94681.31;;;18.21;55.54
61345;BME280;47216;42.656;23.232;2022-10-23T09:06:58;94666.69;;;18.34;55.10
61345;BME280;47216;42.656;23.232;2022-10-23T09:09:41;94670.78;;;18.50;54.61
61345;BME280;47216;42.656;23.232;2022-10-23T09:12:14;94675.53;;;18.48;54.37
61345;BME280;47216;42.656;23.232;2022-10-23T09:14:59;94681.66;;;18.48;54.30
61345;BME280;47216;42.656;23.232;2022-10-23T09:17:31;94684.72;;;18.61;54.23
61345;BME280;47216;42.656;23.232;2022-10-23T09:20:06;94672.78;;;18.63;53.76
61345;BME280;47216;42.656;23.232;2022-10-23T09:22:36;94674.03;;;18.71;53.70
61345;BME280;47216;42.656;23.232;2022-10-23T09:25:07;94679.56;;;18.75;53.91
61345;BME280;47216;42.656;23.232;2022-10-23T09:27:34;94677.69;;;18.80;53.40
61345;BME280;47216;42.656;23.232;2022-10-23T09:30:01;94662.34;;;18.82;52.22
61345;BME280;47216;42.656;23.232;2022-10-23T09:32:34;94674.41;;;18.94;51.66
61345;BME280;47216;42.656;23.232;2022-10-23T09:35:01;94655.78;;;19.04;52.08
61345;BME280;47216;42.656;23.232;2022-10-23T09:37:29;94661.44;;;19.21;52.39
61345;BME280;47216;42.656;23.232;2022-10-23T09:40:13;94648.03;;;19.37;52.40
61345;BME280;47216;42.656;23.232;2022-10-23T09:42:51;94649.63;;;19.38;51.84
61345;BME280;47216;42.656;23.232;2022-10-23T09:45:25;94654.50;;;19.49;49.50
61345;BME280;47216;42.656;23.232;2022-10-23T09:48:12;94654.44;;;19.55;49.72
61345;BME280;47216;42.656;23.232;2022-10-23T09:50:48;94650.94;;;19.59;51.06
61345;BME280;47216;42.656;23.232;2022-10-23T09:53:18;94648.78;;;19.61;50.96
61345;BME280;47216;42.656;23.232;2022-10-23T09:55:51;94636.53;;;19.70;51.14
61345;BME280;47216;42.656;23.232;2022-10-23T09:58:20;94633.34;;;19.73;49.01
61345;BME280;47216;42.656;23.232;2022-10-23T10:00:51;94638.19;;;19.85;49.77
61345;BME280;47216;42.656;23.232;2022-10-23T10:03:22;94639.84;;;20.00;48.44
61345;BME280;47216;42.656;23.232;2022-10-23T10:05:54;94645.47;;;19.93;47.55
61345;BME280;47216;42.656;23.232;2022-10-23T10:08:30;94616.28;;;19.99;48.62
61345;BME280;47216;42.656;23.232;2022-10-23T10:11:01;94632.72;;;20.14;47.24
61345;BME280;47216;42.656;23.232;2022-10-23T10:13:40;94623.66;;;20.21;46.17
61345;BME280;47216;42.656;23.232;2022-10-23T10:16:20;94622.56;;;20.22;45.45
61345;BME280;47216;42.656;23.232;2022-10-23T10:18:56;94615.06;;;20.29;44.90
61345;BME280;47216;42.656;23.232;2022-10-23T10:21:30;94618.63;;;20.38;45.75
61345;BME280;47216;42.656;23.232;2022-10-23T10:24:02;94622.47;;;20.46;46.14
61345;BME280;47216;42.656;23.232;2022-10-23T10:26:40;94615.88;;;20.43;45.47
61345;BME280;47216;42.656;23.232;2022-10-23T10:29:18;94613.31;;;20.38;44.28
61345;BME280;47216;42.656;23.232;2022-10-23T10:32:00;94607.22;;;20.38;44.49
61345;BME280;47216;42.656;23.232;2022-10-23T10:34:40;94615.09;;;20.43;43.90
61345;BME280;47216;42.656;23.232;2022-10-23T10:37:18;94614.91;;;20.53;43.56
61345;BME280;47216;42.656;23.232;2022-10-23T10:39:53;94610.00;;;20.46;45.43
61345;BME280;47216;42.656;23.232;2022-10-23T10:42:43;94617.28;;;20.54;44.19
61345;BME280;47216;42.656;23.232;2022-10-23T10:45:25;94619.88;;;20.60;43.88
61345;BME280;47216;42.656;23.232;2022-10-23T10:48:06;94610.66;;;20.57;43.62
61345;BME280;47216;42.656;23.232;2022-10-23T10:50:42;94610.22;;;20.50;44.24
61345;BME280;47216;42.656;23.232;2022-10-23T10:53:18;94603.03;;;20.50;44.05
61345;BME280;47216;42.656;23.232;2022-10-23T10:55:49;94613.00;;;20.59;44.56
61345;BME280;47216;42.656;23.232;2022-10-23T10:58:22;94597.31;;;20.62;44.49
61345;BME280;47216;42.656;23.232;2022-10-23T11:00:54;94590.34;;;20.66;43.81
61345;BME280;47216;42.656;23.232;2022-10-23T11:03:29;94585.34;;;20.78;44.26
61345;BME280;47216;42.656;23.232;2022-10-23T11:06:04;94592.13;;;20.71;44.34
61345;BME280;47216;42.656;23.232;2022-10-23T11:08:35;94581.31;;;20.81;44.61
61345;BME280;47216;42.656;23.232;2022-10-23T11:11:06;94581.03;;;20.69;44.09
61345;BME280;47216;42.656;23.232;2022-10-23T11:13:38;94575.47;;;20.84;44.56
61345;BME280;47216;42.656;23.232;2022-10-23T11:16:09;94571.63;;;20.90;44.46
61345;BME280;47216;42.656;23.232;2022-10-23T11:18:41;94579.47;;;20.95;43.40
61345;BME280;47216;42.656;23.232;2022-10-23T11:21:20;94572.22;;;21.01;41.75
61345;BME280;47216;42.656;23.232;2022-10-23T11:24:17;94567.19;;;21.13;41.53
61345;BME280;47216;42.656;23.232;2022-10-23T11:32:49;94553.91;;;21.27;41.76
61345;BME280;47216;42.656;23.232;2022-10-23T11:35:35;94555.91;;;21.22;41.80
61345;BME280;47216;42.656;23.232;2022-10-23T11:38:15;94562.59;;;21.19;41.28
61345;BME280;47216;42.656;23.232;2022-10-23T11:40:44;94554.72;;;21.14;41.34
61345;BME280;47216;42.656;23.232;2022-10-23T11:43:12;94557.06;;;21.29;41.76
61345;BME280;47216;42.656;23.232;2022-10-23T11:45:40;94543.19;;;21.32;41.14
61345;BME280;47216;42.656;23.232;2022-10-23T11:48:20;94544.69;;;21.25;41.24
61345;BME280;47216;42.656;23.232;2022-10-23T11:50:52;94548.13;;;21.25;41.77
61345;BME280;47216;42.656;23.232;2022-10-23T11:53:36;94545.69;;;21.43;41.94
61345;BME280;47216;42.656;23.232;2022-10-23T11:56:19;94531.09;;;21.54;41.96
61345;BME280;47216;42.656;23.232;2022-10-23T11:58:49;94539.34;;;21.38;41.61
61345;BME280;47216;42.656;23.232;2022-10-23T12:01:30;94533.69;;;21.31;41.32
61345;BME280;47216;42.656;23.232;2022-10-23T12:04:00;94525.22;;;21.29;41.25
61345;BME280;47216;42.656;23.232;2022-10-23T12:06:30;94538.38;;;21.34;40.87
61345;BME280;47216;42.656;23.232;2022-10-23T12:09:03;94529.94;;;21.32;41.58
61345;BME280;47216;42.656;23.232;2022-10-23T12:11:42;94530.72;;;21.33;41.12
61345;BME280;47216;42.656;23.232;2022-10-23T12:14:26;94524.22;;;21.53;41.38
61345;BME280;47216;42.656;23.232;2022-10-23T12:16:53;94529.03;;;21.51;41.08
61345;BME280;47216;42.656;23.232;2022-10-23T12:19:22;94520.66;;;21.57;40.70
61345;BME280;47216;42.656;23.232;2022-10-23T12:21:50;94514.81;;;21.47;40.84
61345;BME280;47216;42.656;23.232;2022-10-23T12:24:39;94526.38;;;21.51;41.46
61345;BME280;47216;42.656;23.232;2022-10-23T12:27:21;94520.25;;;21.64;40.86
61345;BME280;47216;42.656;23.232;2022-10-23T12:30:00;94521.84;;;21.65;40.96
61345;BME280;47216;42.656;23.232;2022-10-23T12:35:51;94520.59;;;21.49;41.73
61345;BME280;47216;42.656;23.232;2022-10-23T12:38:24;94520.53;;;21.63;41.53
61345;BME280;47216;42.656;23.232;2022-10-23T12:40:58;94514.94;;;21.64;41.50
61345;BME280;47216;42.656;23.232;2022-10-23T12:43:29;94522.41;;;21.62;41.40
61345;BME280;47216;42.656;23.232;2022-10-23T12:46:01;94526.03;;;21.66;40.73
61345;BME280;47216;42.656;23.232;2022-10-23T12:48:32;94526.38;;;21.51;40.74
61345;BME280;47216;42.656;23.232;2022-10-23T12:50:59;94532.91;;;21.45;40.89
61345;BME280;47216;42.656;23.232;2022-10-23T12:53:26;94524.22;;;21.53;40.97
61345;BME280;47216;42.656;23.232;2022-10-23T12:55:56;94538.56;;;21.52;41.44
61345;BME280;47216;42.656;23.232;2022-10-23T12:58:25;94540.91;;;21.39;41.64
61345;BME280;47216;42.656;23.232;2022-10-23T13:00:57;94532.28;;;21.34;41.82
61345;BME280;47216;42.656;23.232;2022-10-23T13:03:25;94525.31;;;21.38;42.40
61345;BME280;47216;42.656;23.232;2022-10-23T13:05:54;94527.59;;;21.45;42.34
61345;BME280;47216;42.656;23.232;2022-10-23T13:08:30;94525.97;;;21.57;42.36
61345;BME280;47216;42.656;23.232;2022-10-23T13:10:59;94528.34;;;21.59;42.61
61345;BME280;47216;42.656;23.232;2022-10-23T13:13:26;94527.06;;;21.56;41.83
61345;BME280;47216;42.656;23.232;2022-10-23T13:15:53;94526.69;;;21.72;41.80